createdAt,value
2019-05-13T00:01:37.859Z,1.90
2019-05-13T00:04:07.596Z,5.37
2019-05-13T00:06:50.174Z,2.40
2019-05-13T00:09:09.268Z,2.47
2019-05-13T00:11:43.634Z,2.30
2019-05-13T00:14:13.451Z,2.67
2019-05-13T00:16:44.856Z,2.47
2019-05-13T00:19:14.934Z,2.50
2019-05-13T00:21:44.665Z,3.50
2019-05-13T00:24:14.526Z,5.27
2019-05-13T00:26:50.296Z,4.63
2019-05-13T00:29:20.223Z,3.73
2019-05-13T00:31:50.004Z,2.50
2019-05-13T00:34:19.889Z,1.87
2019-05-13T00:37:07.372Z,2.00
2019-05-13T00:39:24.605Z,2.10
2019-05-13T00:41:54.806Z,1.83
2019-05-13T00:44:24.590Z,1.90
2019-05-13T00:46:54.276Z,2.20
2019-05-13T00:49:24.076Z,1.70
2019-05-13T00:51:53.837Z,1.90
2019-05-13T00:54:23.815Z,1.90
2019-05-13T00:56:54.785Z,1.57
2019-05-13T00:59:24.597Z,1.80
2019-05-13T01:01:54.327Z,1.50
2019-05-13T01:04:24.141Z,1.70
2019-05-13T01:06:54.453Z,1.50
2019-05-13T01:09:24.777Z,1.70
2019-05-13T01:11:54.880Z,1.60
2019-05-13T01:14:24.711Z,1.53
2019-05-13T01:16:54.535Z,1.47
2019-05-13T01:19:24.943Z,1.40
2019-05-13T01:21:55.070Z,1.57
2019-05-13T01:24:25.267Z,1.70
2019-05-13T01:26:56.657Z,1.60
2019-05-13T01:29:28.802Z,1.50
2019-05-13T01:32:00.912Z,1.80
2019-05-13T01:34:30.976Z,1.70
2019-05-13T01:37:00.715Z,1.50
2019-05-13T01:39:30.895Z,1.60
2019-05-13T01:42:00.630Z,1.53
2019-05-13T01:44:32.971Z,2.00
2019-05-13T01:47:04.815Z,2.00
2019-05-13T01:49:34.522Z,2.20
2019-05-13T01:52:07.446Z,1.80
2019-05-13T01:54:37.530Z,1.43
2019-05-13T01:57:07.391Z,2.30
2019-05-13T01:59:37.202Z,2.80
2019-05-13T02:02:06.999Z,2.37
2019-05-13T02:04:39.912Z,2.00
2019-05-13T02:07:09.712Z,2.07
2019-05-13T02:09:39.815Z,1.90
2019-05-13T02:12:09.859Z,2.00
2019-05-13T02:14:39.693Z,2.13
2019-05-13T02:17:09.530Z,1.60
2019-05-13T02:19:39.440Z,2.00
2019-05-13T02:22:09.360Z,2.03
2019-05-13T02:24:41.199Z,1.80
2019-05-13T02:27:14.146Z,1.93
2019-05-13T02:29:43.800Z,2.00
2019-05-13T02:32:15.068Z,2.00
2019-05-13T02:34:45.110Z,2.23
2019-05-13T02:37:14.863Z,1.93
2019-05-13T02:39:45.219Z,1.70
2019-05-13T02:42:17.359Z,1.57
2019-05-13T02:44:52.966Z,1.70
2019-05-13T02:47:23.767Z,1.90
2019-05-13T02:49:53.576Z,1.60
2019-05-13T02:52:24.004Z,2.20
2019-05-13T02:54:53.846Z,1.80
2019-05-13T02:57:23.834Z,2.27
2019-05-13T02:59:53.709Z,2.00
2019-05-13T03:02:23.896Z,2.10
2019-05-13T03:04:53.651Z,2.77
2019-05-13T03:07:23.607Z,2.50
2019-05-13T03:09:53.674Z,2.13
2019-05-13T03:12:23.485Z,2.27
2019-05-13T03:14:53.534Z,2.10
2019-05-13T03:17:38.269Z,2.30
2019-05-13T03:20:12.974Z,1.83
2019-05-13T03:22:43.125Z,2.47
2019-05-13T03:25:13.071Z,2.47
2019-05-13T03:27:43.067Z,2.90
2019-05-13T03:30:16.930Z,2.33
2019-05-13T03:32:55.087Z,2.27
2019-05-13T03:35:27.064Z,2.17
2019-05-13T03:37:54.704Z,2.10
2019-05-13T03:40:28.809Z,2.00
2019-05-13T03:43:03.023Z,1.87
2019-05-13T03:45:35.544Z,2.13
2019-05-13T03:48:06.812Z,2.00
2019-05-13T03:50:39.052Z,2.27
2019-05-13T03:53:09.162Z,1.83
2019-05-13T03:55:39.080Z,1.80
2019-05-13T03:58:12.255Z,1.97
2019-05-13T04:00:43.849Z,2.00
2019-05-13T04:03:17.071Z,2.00
2019-05-13T04:05:47.035Z,2.30
2019-05-13T04:08:16.982Z,2.33
2019-05-13T04:10:46.755Z,2.37
2019-05-13T04:13:16.955Z,1.93
2019-05-13T04:15:46.781Z,2.27
2019-05-13T04:18:18.500Z,2.00
2019-05-13T04:20:48.755Z,2.10
2019-05-13T04:23:18.923Z,2.10
2019-05-13T04:25:48.723Z,2.57
2019-05-13T04:28:22.008Z,2.33
2019-05-13T04:30:52.620Z,2.17
2019-05-13T04:33:25.105Z,2.80
2019-05-13T04:35:55.181Z,3.00
2019-05-13T04:38:26.600Z,2.30
2019-05-13T04:40:56.526Z,2.50
2019-05-13T04:43:31.632Z,2.80
2019-05-13T04:46:02.660Z,3.43
2019-05-13T04:48:33.853Z,2.77
2019-05-13T04:51:04.754Z,2.90
2019-05-13T04:53:34.624Z,2.90
2019-05-13T04:56:04.530Z,2.80
2019-05-13T04:58:34.636Z,2.60
2019-05-13T05:01:26.549Z,2.13
2019-05-13T05:04:04.129Z,2.03
2019-05-13T05:06:55.172Z,2.30
2019-05-13T05:10:30.322Z,2.20
2019-05-13T05:13:22.126Z,2.13
2019-05-13T05:16:17.301Z,2.10
2019-05-13T05:19:06.255Z,2.23
2019-05-13T05:21:44.306Z,2.50
2019-05-13T05:24:37.459Z,2.13
2019-05-13T05:27:58.299Z,2.40
2019-05-13T05:31:02.856Z,3.87
2019-05-13T05:34:32.391Z,2.30
2019-05-13T05:37:27.434Z,1.90
2019-05-13T05:39:59.071Z,2.10
2019-05-13T05:42:32.267Z,2.03
2019-05-13T05:45:03.511Z,3.00
2019-05-13T05:47:35.424Z,2.73
2019-05-13T05:50:05.834Z,2.40
2019-05-13T05:52:37.251Z,2.10
2019-05-13T05:55:07.228Z,2.30
2019-05-13T05:57:41.939Z,2.00
2019-05-13T06:00:12.635Z,2.37
2019-05-13T06:02:45.463Z,2.03
2019-05-13T06:05:15.566Z,2.27
2019-05-13T06:07:46.054Z,3.00
2019-05-13T06:10:16.015Z,2.00
2019-05-13T06:12:46.863Z,2.10
2019-05-13T06:15:16.718Z,1.90
2019-05-13T06:17:47.052Z,2.23
2019-05-13T06:20:16.948Z,2.50
2019-05-13T06:22:46.818Z,2.10
2019-05-13T06:25:16.930Z,2.23
2019-05-13T06:27:47.041Z,2.47
2019-05-13T06:30:17.387Z,2.23
2019-05-13T06:32:47.254Z,2.47
2019-05-13T06:35:17.099Z,2.50
2019-05-13T06:37:46.850Z,2.70
2019-05-13T06:40:16.716Z,2.40
2019-05-13T06:42:46.734Z,2.60
2019-05-13T06:45:16.641Z,2.30
2019-05-13T06:47:46.318Z,2.13
2019-05-13T06:50:16.169Z,2.20
2019-05-13T06:52:46.335Z,2.40
2019-05-13T06:55:16.206Z,1.90
2019-05-13T06:57:45.887Z,2.20
2019-05-13T07:00:16.147Z,2.00
2019-05-13T07:02:46.159Z,1.93
2019-05-13T07:05:16.036Z,2.57
2019-05-13T07:07:45.859Z,2.10
2019-05-13T07:10:15.686Z,1.73
2019-05-13T07:12:45.382Z,2.17
2019-05-13T07:15:15.273Z,2.30
2019-05-13T07:17:44.946Z,2.00
2019-05-13T07:20:15.316Z,2.07
2019-05-13T07:22:45.147Z,2.00
2019-05-13T07:25:15.149Z,2.10
2019-05-13T07:27:45.003Z,1.87
2019-05-13T07:30:16.490Z,2.00
2019-05-13T07:32:46.745Z,1.93
2019-05-13T07:35:16.717Z,1.90
2019-05-13T07:37:46.851Z,3.70
2019-05-13T07:40:16.610Z,2.70
2019-05-13T07:42:46.572Z,2.40
2019-05-13T07:45:16.426Z,1.97
2019-05-13T07:47:46.126Z,2.27
2019-05-13T07:50:16.187Z,1.90
2019-05-13T07:52:46.136Z,2.00
2019-05-13T07:55:16.083Z,1.70
2019-05-13T07:57:46.116Z,2.10
2019-05-13T08:00:16.287Z,2.10
2019-05-13T08:02:46.074Z,2.03
2019-05-13T08:05:16.063Z,1.83
2019-05-13T08:07:45.915Z,2.20
2019-05-13T08:10:16.145Z,2.73
2019-05-13T08:12:46.101Z,2.37
2019-05-13T08:15:16.092Z,1.93
2019-05-13T08:17:47.712Z,2.03
2019-05-13T08:20:17.589Z,2.00
2019-05-13T08:22:47.572Z,2.00
2019-05-13T08:25:17.303Z,1.80
2019-05-13T08:27:47.415Z,2.00
2019-05-13T08:30:18.316Z,2.70
2019-05-13T08:32:48.486Z,2.10
2019-05-13T08:35:18.235Z,2.23
2019-05-13T08:37:48.130Z,4.03
2019-05-13T08:40:20.137Z,1.87
2019-05-13T08:42:52.045Z,2.43
2019-05-13T08:45:22.383Z,3.50
2019-05-13T08:47:52.504Z,3.13
2019-05-13T08:50:22.296Z,2.23
2019-05-13T08:52:52.112Z,2.17
2019-05-13T08:55:21.918Z,2.20
2019-05-13T08:57:55.164Z,2.00
2019-05-13T09:00:58.815Z,1.93
2019-05-13T09:03:26.943Z,1.93
2019-05-13T09:05:57.277Z,2.27
2019-05-13T09:08:27.106Z,2.63
2019-05-13T09:10:57.446Z,2.07
2019-05-13T09:13:27.258Z,1.90
2019-05-13T09:15:57.143Z,1.83
2019-05-13T09:18:27.048Z,2.20
2019-05-13T09:20:57.102Z,2.00
2019-05-13T09:23:26.932Z,2.00
2019-05-13T09:25:56.927Z,2.13
2019-05-13T09:28:27.003Z,2.37
2019-05-13T09:30:56.955Z,2.13
2019-05-13T09:33:27.291Z,1.67
2019-05-13T09:35:57.300Z,1.87
2019-05-13T09:38:27.102Z,2.10
2019-05-13T09:40:56.820Z,1.87
2019-05-13T09:43:26.865Z,1.90
2019-05-13T09:45:56.647Z,2.20
2019-05-13T09:48:26.478Z,2.13
2019-05-13T09:50:56.243Z,1.80
2019-05-13T09:53:26.251Z,1.80
2019-05-13T09:55:55.998Z,2.03
2019-05-13T09:58:29.470Z,2.17
2019-05-13T10:00:57.604Z,1.80
2019-05-13T10:03:29.768Z,1.97
2019-05-13T10:06:02.226Z,1.80
2019-05-13T10:08:32.634Z,2.23
2019-05-13T10:11:03.093Z,1.93
2019-05-13T10:13:32.954Z,3.10
2019-05-13T10:16:02.967Z,3.37
2019-05-13T10:18:32.917Z,8.73
2019-05-13T10:21:03.389Z,2.87
2019-05-13T10:23:33.558Z,2.70
2019-05-13T10:26:05.990Z,1.90
2019-05-13T10:28:36.388Z,1.93
2019-05-13T10:31:06.509Z,1.67
2019-05-13T10:33:36.520Z,1.90
2019-05-13T10:36:06.612Z,2.00
2019-05-13T10:38:36.529Z,1.67
2019-05-13T10:41:06.454Z,1.90
2019-05-13T10:43:41.472Z,1.63
2019-05-13T10:46:08.210Z,1.77
2019-05-13T10:48:37.990Z,1.53
2019-05-13T10:51:07.692Z,1.63
2019-05-13T10:53:37.508Z,1.70
2019-05-13T10:56:07.339Z,1.63
2019-05-13T10:58:37.039Z,2.00
2019-05-13T11:01:07.130Z,1.33
2019-05-13T11:03:36.954Z,1.63
2019-05-13T11:06:08.282Z,2.37
2019-05-13T11:08:38.215Z,1.80
2019-05-13T11:11:08.287Z,1.87
2019-05-13T11:13:52.372Z,1.43
2019-05-13T11:16:12.205Z,1.33
2019-05-13T11:18:41.381Z,1.23
2019-05-13T11:21:12.942Z,1.70
2019-05-13T11:23:42.583Z,1.63
2019-05-13T11:26:13.073Z,1.37
2019-05-13T11:28:43.164Z,2.00
2019-05-13T11:31:12.983Z,1.63
2019-05-13T11:33:42.968Z,1.53
2019-05-13T11:36:18.504Z,1.20
2019-05-13T11:38:44.423Z,1.50
2019-05-13T11:41:14.310Z,1.53
2019-05-13T11:43:44.494Z,1.10
2019-05-13T11:46:14.382Z,1.40
2019-05-13T11:48:44.169Z,1.43
2019-05-13T11:51:14.131Z,1.27
2019-05-13T11:53:43.838Z,1.40
2019-05-13T11:56:13.791Z,1.60
2019-05-13T11:58:43.987Z,1.20
2019-05-13T12:01:13.775Z,1.80
2019-05-13T12:03:43.766Z,1.80
2019-05-13T12:06:13.944Z,1.80
2019-05-13T12:08:51.027Z,1.50
2019-05-13T12:11:15.211Z,1.50
2019-05-13T12:13:45.011Z,1.33
2019-05-13T12:16:14.833Z,1.63
2019-05-13T12:18:44.880Z,1.60
2019-05-13T12:21:14.706Z,1.47
2019-05-13T12:23:44.704Z,1.50
2019-05-13T12:26:14.863Z,1.77
2019-05-13T12:28:45.075Z,1.87
2019-05-13T12:31:15.426Z,1.60
2019-05-13T12:33:45.487Z,1.40
2019-05-13T12:36:18.819Z,1.47
2019-05-13T12:38:46.896Z,1.90
2019-05-13T12:41:16.569Z,1.67
2019-05-13T12:43:46.849Z,1.60
2019-05-13T12:46:16.566Z,1.47
2019-05-13T12:48:46.344Z,1.80
2019-05-13T12:51:16.184Z,1.90
2019-05-13T12:53:46.274Z,1.40
2019-05-13T12:56:16.364Z,1.50
2019-05-13T12:58:46.194Z,1.33
2019-05-13T13:01:16.026Z,1.60
2019-05-13T13:03:45.809Z,1.63
2019-05-13T13:06:32.396Z,1.57
2019-05-13T13:08:49.309Z,1.30
2019-05-13T13:11:19.087Z,1.60
2019-05-13T13:13:59.472Z,1.60
2019-05-13T13:16:20.715Z,1.30
2019-05-13T13:18:52.167Z,1.77
2019-05-13T13:21:24.429Z,1.53
2019-05-13T13:23:53.262Z,1.40
2019-05-13T13:26:23.248Z,1.40
2019-05-13T13:28:55.516Z,1.67
2019-05-13T13:31:25.334Z,1.33
2019-05-13T13:33:55.848Z,1.50
2019-05-13T13:36:25.818Z,1.50
2019-05-13T13:38:56.385Z,1.30
2019-05-13T13:41:26.302Z,1.33
2019-05-13T13:43:56.444Z,1.43
2019-05-13T13:46:37.007Z,1.50
2019-05-13T13:48:57.682Z,1.50
2019-05-13T13:51:27.457Z,2.00
2019-05-13T13:53:57.201Z,1.40
2019-05-13T13:56:26.977Z,1.37
2019-05-13T13:58:56.923Z,1.50
2019-05-13T14:01:27.747Z,1.40
2019-05-13T14:03:57.525Z,1.30
2019-05-13T14:09:01.282Z,1.50
2019-05-13T14:11:32.966Z,1.67
2019-05-13T14:14:02.229Z,1.50
2019-05-13T14:16:35.050Z,1.60
2019-05-13T14:19:03.715Z,1.70
2019-05-13T14:21:34.034Z,1.60
2019-05-13T14:24:03.731Z,1.40
2019-05-13T14:26:33.598Z,1.63
2019-05-13T14:29:04.364Z,1.30
2019-05-13T14:31:34.147Z,1.40
2019-05-13T14:34:04.224Z,1.40
2019-05-13T14:36:34.029Z,1.50
2019-05-13T14:39:04.996Z,1.20
2019-05-13T14:41:35.030Z,1.63
2019-05-13T14:44:05.059Z,1.50
2019-05-13T14:46:46.366Z,1.50
2019-05-13T14:49:08.777Z,1.53
2019-05-13T14:51:38.474Z,1.60
2019-05-13T14:54:08.515Z,1.40
2019-05-13T14:56:38.310Z,1.30
2019-05-13T14:59:08.111Z,1.40
2019-05-13T15:01:38.071Z,1.30
2019-05-13T15:04:07.902Z,1.90
2019-05-13T15:06:37.626Z,1.50
2019-05-13T15:09:07.830Z,1.80
2019-05-13T15:11:37.728Z,1.40
2019-05-13T15:14:07.830Z,1.70
2019-05-13T15:16:37.625Z,1.60
2019-05-13T15:19:07.597Z,1.50
2019-05-13T15:21:37.359Z,1.40
2019-05-13T15:24:07.763Z,1.43
2019-05-13T15:26:38.005Z,1.30
2019-05-13T15:29:07.896Z,1.50
2019-05-13T15:31:37.647Z,1.63
2019-05-13T15:34:07.948Z,1.40
2019-05-13T15:36:37.739Z,1.60
2019-05-13T15:39:07.878Z,2.23
2019-05-13T15:41:38.194Z,1.60
2019-05-13T15:44:08.036Z,1.50
2019-05-13T15:46:37.749Z,1.30
2019-05-13T15:49:07.523Z,1.37
2019-05-13T15:51:37.320Z,1.37
2019-05-13T15:54:14.672Z,1.77
2019-05-13T15:56:41.459Z,1.37
2019-05-13T15:59:12.592Z,1.37
2019-05-13T16:01:42.614Z,1.40
2019-05-13T16:04:13.527Z,1.20
2019-05-13T16:06:43.511Z,1.30
2019-05-13T16:09:13.377Z,1.67
2019-05-13T16:11:43.764Z,1.27
2019-05-13T16:14:13.799Z,1.27
2019-05-13T16:16:44.110Z,1.60
2019-05-13T16:19:14.359Z,1.40
2019-05-13T16:21:44.620Z,1.63
2019-05-13T16:24:14.410Z,1.53
2019-05-13T16:26:44.296Z,1.73
2019-05-13T16:29:14.347Z,1.60
2019-05-13T16:31:44.278Z,1.40
2019-05-13T16:34:14.132Z,1.40
2019-05-13T16:36:44.588Z,1.23
2019-05-13T16:39:14.681Z,1.37
2019-05-13T16:41:44.511Z,1.40
2019-05-13T16:44:14.849Z,1.20
2019-05-13T16:46:44.844Z,1.63
2019-05-13T16:49:15.010Z,1.40
2019-05-13T16:51:45.431Z,1.40
2019-05-13T16:54:15.894Z,1.63
2019-05-13T16:56:45.729Z,1.63
2019-05-13T16:59:15.586Z,1.30
2019-05-13T17:01:45.371Z,1.50
2019-05-13T17:04:15.386Z,1.93
2019-05-13T17:06:45.314Z,2.87
2019-05-13T17:09:15.422Z,3.90
2019-05-13T17:11:45.178Z,3.40
2019-05-13T17:14:15.015Z,1.60
2019-05-13T17:16:44.890Z,2.03
2019-05-13T17:19:14.982Z,1.63
2019-05-13T17:21:44.715Z,2.20
2019-05-13T17:24:14.605Z,2.03
2019-05-13T17:26:44.674Z,1.60
2019-05-13T17:29:14.694Z,1.80
2019-05-13T17:31:44.552Z,2.43
2019-05-13T17:34:14.715Z,4.53
2019-05-13T17:36:44.824Z,3.03
2019-05-13T17:39:14.668Z,1.90
2019-05-13T17:41:45.094Z,2.23
2019-05-13T17:44:15.054Z,2.30
2019-05-13T17:46:45.336Z,2.20
2019-05-13T17:49:15.544Z,1.90
2019-05-13T17:51:45.505Z,1.63
2019-05-13T17:54:15.376Z,1.80
2019-05-13T17:56:45.139Z,2.20
2019-05-13T17:59:16.237Z,3.17
2019-05-13T18:01:46.635Z,1.50
2019-05-13T18:04:16.522Z,2.30
2019-05-13T18:06:46.578Z,4.80
2019-05-13T18:09:16.630Z,3.33
2019-05-13T18:11:46.471Z,2.70
2019-05-13T18:14:16.619Z,2.07
2019-05-13T18:16:46.531Z,3.07
2019-05-13T18:19:16.652Z,1.83
2019-05-13T18:21:46.894Z,3.00
2019-05-13T18:24:17.279Z,3.20
2019-05-13T18:26:47.165Z,4.30
2019-05-13T18:29:17.598Z,5.00
2019-05-13T18:31:48.366Z,6.83
2019-05-13T18:34:18.305Z,5.20
2019-05-13T18:36:48.639Z,2.67
2019-05-13T18:39:18.792Z,1.83
2019-05-13T18:41:49.218Z,3.47
2019-05-13T18:44:19.402Z,3.50
2019-05-13T18:46:52.157Z,2.97
2019-05-13T18:49:21.275Z,2.07
2019-05-13T18:51:52.153Z,1.70
2019-05-13T18:54:25.803Z,2.23
2019-05-13T18:56:56.824Z,2.80
2019-05-13T18:59:26.979Z,1.90
2019-05-13T19:01:57.399Z,2.83
2019-05-13T19:04:27.559Z,2.50
2019-05-13T19:06:57.448Z,2.83
2019-05-13T19:09:27.838Z,3.13
2019-05-13T19:11:57.691Z,2.80
2019-05-13T19:14:28.007Z,2.60
2019-05-13T19:16:57.879Z,2.37
2019-05-13T19:19:27.935Z,2.53
2019-05-13T19:21:58.127Z,2.77
2019-05-13T19:24:29.102Z,2.47
2019-05-13T19:27:01.969Z,2.17
2019-05-13T19:29:32.091Z,2.83
2019-05-13T19:32:02.096Z,4.07
2019-05-13T19:34:32.521Z,4.97
2019-05-13T19:37:02.676Z,5.53
2019-05-13T19:39:32.766Z,6.53
2019-05-13T19:42:03.568Z,6.83
2019-05-13T19:44:33.396Z,5.30
2019-05-13T19:47:03.355Z,4.13
2019-05-13T19:49:36.988Z,5.00
2019-05-13T19:52:05.329Z,3.00
2019-05-13T19:54:35.104Z,3.70
2019-05-13T19:57:04.941Z,2.90
2019-05-13T19:59:34.653Z,2.30
2019-05-13T20:02:05.148Z,3.03
2019-05-13T20:04:35.201Z,5.97
2019-05-13T20:07:05.116Z,6.27
2019-05-13T20:09:36.976Z,6.43
2019-05-13T20:12:07.117Z,6.87
2019-05-13T20:14:37.169Z,4.50
2019-05-13T20:17:07.066Z,2.43
2019-05-13T20:19:47.693Z,4.70
2019-05-13T20:22:11.526Z,3.70
2019-05-13T20:24:41.945Z,4.13
2019-05-13T20:27:12.500Z,2.00
2019-05-13T20:29:42.546Z,2.57
2019-05-13T20:32:12.633Z,6.87
2019-05-13T20:34:42.553Z,2.60
2019-05-13T20:37:12.957Z,3.87
2019-05-13T20:39:42.933Z,1.90
2019-05-13T20:42:13.226Z,5.83
2019-05-13T20:44:43.351Z,2.00
2019-05-13T20:47:13.597Z,3.87
2019-05-13T20:49:43.500Z,4.40
2019-05-13T20:52:15.483Z,5.53
2019-05-13T20:54:45.182Z,4.50
2019-05-13T20:57:15.257Z,3.07
2019-05-13T20:59:45.627Z,2.00
2019-05-13T21:02:15.801Z,2.50
2019-05-13T21:04:45.835Z,2.20
2019-05-13T21:07:16.034Z,2.63
2019-05-13T21:09:46.159Z,1.77
2019-05-13T21:12:16.156Z,1.53
2019-05-13T21:14:46.264Z,1.70
2019-05-13T21:17:21.277Z,2.03
2019-05-13T21:19:59.799Z,2.20
2019-05-13T21:22:26.871Z,2.13
2019-05-13T21:24:57.894Z,2.10
2019-05-13T21:27:27.943Z,1.90
2019-05-13T21:29:57.788Z,2.10
2019-05-13T21:32:28.084Z,2.13
2019-05-13T21:34:58.049Z,1.93
2019-05-13T21:37:28.350Z,2.17
2019-05-13T21:40:01.539Z,2.00
2019-05-13T21:42:33.415Z,1.70
2019-05-13T21:45:03.851Z,2.10
2019-05-13T21:47:33.847Z,1.97
2019-05-13T21:50:04.066Z,2.10
2019-05-13T21:52:36.339Z,1.90
2019-05-13T21:55:06.718Z,1.70
2019-05-13T21:57:36.586Z,1.80
2019-05-13T22:00:10.727Z,1.60
2019-05-13T22:02:41.186Z,1.67
2019-05-13T22:05:13.582Z,1.80
2019-05-13T22:07:43.408Z,1.70
2019-05-13T22:10:17.218Z,1.83
2019-05-13T22:12:47.309Z,1.70
2019-05-13T22:15:18.758Z,1.53
2019-05-13T22:17:51.521Z,1.67
2019-05-13T22:20:21.779Z,1.50
2019-05-13T22:22:52.112Z,1.70
2019-05-13T22:25:22.184Z,1.73
2019-05-13T22:27:52.009Z,1.80
2019-05-13T22:30:22.281Z,1.80
2019-05-13T22:32:52.542Z,1.70
2019-05-13T22:35:22.547Z,1.83
2019-05-13T22:37:54.206Z,1.30
2019-05-13T22:40:24.141Z,1.80
2019-05-13T22:42:56.798Z,1.70
2019-05-13T22:45:25.670Z,1.70
2019-05-13T22:47:55.535Z,1.53
2019-05-13T22:50:26.991Z,2.20
2019-05-13T22:53:01.394Z,1.70
2019-05-13T22:55:31.574Z,1.70
2019-05-13T22:58:02.943Z,1.67
2019-05-13T23:00:33.050Z,1.77
2019-05-13T23:03:03.727Z,1.83
2019-05-13T23:05:36.786Z,1.90
2019-05-13T23:08:08.484Z,1.60
2019-05-13T23:10:42.135Z,1.30
2019-05-13T23:13:12.703Z,1.53
2019-05-13T23:15:42.569Z,1.50
2019-05-13T23:18:12.411Z,1.70
2019-05-13T23:20:42.560Z,1.73
2019-05-13T23:23:14.822Z,1.70
2019-05-13T23:25:44.124Z,1.80
2019-05-13T23:28:13.877Z,1.70
2019-05-13T23:30:43.780Z,1.70
2019-05-13T23:33:15.065Z,1.60
2019-05-13T23:35:44.958Z,2.10
2019-05-13T23:38:15.031Z,1.77
2019-05-13T23:40:44.882Z,1.60
2019-05-13T23:43:14.847Z,2.00
2019-05-13T23:45:44.675Z,1.70
2019-05-13T23:48:14.775Z,1.90
2019-05-13T23:50:44.609Z,1.87
2019-05-13T23:53:15.116Z,1.40
2019-05-13T23:55:45.124Z,1.53
2019-05-13T23:58:18.193Z,1.70
